createdAt,value
2022-10-15T00:03:00.233Z,14.30
2022-10-15T00:08:00.118Z,14.28
2022-10-15T00:13:00.167Z,14.27
2022-10-15T00:17:59.998Z,14.28
2022-10-15T00:22:59.930Z,14.26
2022-10-15T00:27:59.897Z,14.28
2022-10-15T00:32:59.808Z,14.23
2022-10-15T00:37:59.738Z,14.27
2022-10-15T00:42:59.672Z,14.33
2022-10-15T00:47:59.596Z,14.30
2022-10-15T00:52:59.577Z,14.28
2022-10-15T00:57:59.514Z,14.34
2022-10-15T01:02:59.422Z,14.31
2022-10-15T01:07:59.343Z,14.31
2022-10-15T01:12:59.283Z,14.27
2022-10-15T01:17:59.214Z,14.26
2022-10-15T01:22:59.184Z,14.21
2022-10-15T01:27:59.073Z,14.27
2022-10-15T01:32:59.023Z,14.22
2022-10-15T01:37:59.005Z,14.21
2022-10-15T01:42:58.914Z,14.19
2022-10-15T01:47:58.830Z,14.22
2022-10-15T01:52:58.758Z,14.23
2022-10-15T01:57:58.717Z,14.27
2022-10-15T02:02:58.642Z,14.23
2022-10-15T02:07:58.649Z,14.27
2022-10-15T02:12:58.521Z,14.21
2022-10-15T02:17:58.430Z,14.15
2022-10-15T02:22:58.376Z,14.18
2022-10-15T02:27:58.300Z,14.15
2022-10-15T02:32:58.291Z,14.08
2022-10-15T02:37:58.164Z,14.11
2022-10-15T02:42:58.113Z,14.09
2022-10-15T02:47:58.069Z,14.08
2022-10-15T02:52:57.993Z,13.98
2022-10-15T02:57:57.923Z,13.98
2022-10-15T03:02:57.863Z,13.91
2022-10-15T03:07:57.844Z,13.91
2022-10-15T03:12:57.739Z,13.94
2022-10-15T03:17:57.644Z,13.93
2022-10-15T03:22:57.599Z,13.91
2022-10-15T03:27:57.529Z,13.88
2022-10-15T03:32:57.467Z,13.91
2022-10-15T03:37:57.397Z,13.93
2022-10-15T03:42:57.359Z,13.94
2022-10-15T03:47:57.260Z,13.90
2022-10-15T03:52:57.237Z,13.97
2022-10-15T03:57:57.142Z,13.98
2022-10-15T04:02:57.078Z,13.97
2022-10-15T04:07:57.031Z,14.03
2022-10-15T04:12:56.952Z,14.01
2022-10-15T04:17:56.897Z,14.05
2022-10-15T04:22:56.833Z,14.05
2022-10-15T04:27:56.782Z,14.09
2022-10-15T04:32:56.694Z,14.15
2022-10-15T04:37:56.639Z,14.13
2022-10-15T04:42:56.575Z,14.12
2022-10-15T04:47:56.476Z,14.16
2022-10-15T04:52:56.435Z,14.18
2022-10-15T04:57:56.365Z,14.19
2022-10-15T05:02:56.371Z,14.27
2022-10-15T05:07:56.248Z,14.22
2022-10-15T05:12:57.004Z,14.23
2022-10-15T05:17:56.109Z,14.30
2022-10-15T05:22:56.054Z,14.27
2022-10-15T05:27:55.982Z,14.27
2022-10-15T05:32:55.969Z,14.22
2022-10-15T05:37:55.862Z,14.27
2022-10-15T05:42:55.866Z,14.27
2022-10-15T05:47:55.725Z,14.26
2022-10-15T05:52:55.665Z,14.30
2022-10-15T05:57:55.583Z,14.31
2022-10-15T06:02:55.586Z,14.27
2022-10-15T06:07:55.463Z,14.34
2022-10-15T06:12:55.407Z,14.40
2022-10-15T06:17:55.322Z,14.37
2022-10-15T06:22:55.266Z,14.40
2022-10-15T06:27:55.228Z,14.44
2022-10-15T06:32:55.146Z,14.45
2022-10-15T06:37:58.081Z,14.49
2022-10-15T06:42:56.043Z,14.55
2022-10-15T06:47:54.938Z,14.69
2022-10-15T06:52:54.947Z,14.67
2022-10-15T06:57:54.848Z,14.71
2022-10-15T07:02:54.740Z,14.78
2022-10-15T07:07:54.691Z,14.79
2022-10-15T07:12:54.634Z,14.83
2022-10-15T07:17:54.572Z,14.92
2022-10-15T07:22:54.509Z,14.93
2022-10-15T07:27:54.433Z,14.90
2022-10-15T07:32:54.383Z,14.92
2022-10-15T07:37:54.333Z,14.99
2022-10-15T07:42:54.251Z,14.95
2022-10-15T07:47:54.245Z,15.08
2022-10-15T07:52:54.154Z,15.05
2022-10-15T07:57:54.087Z,15.04
2022-10-15T08:02:54.036Z,14.99
2022-10-15T08:07:53.957Z,14.97
2022-10-15T08:12:53.908Z,15.05
2022-10-15T08:17:53.817Z,15.11
2022-10-15T08:22:53.792Z,15.17
2022-10-15T08:27:53.701Z,15.17
2022-10-15T08:32:53.637Z,15.17
2022-10-15T08:37:53.579Z,15.12
2022-10-15T08:42:53.529Z,15.11
2022-10-15T08:47:53.449Z,15.19
2022-10-15T08:52:53.399Z,15.22
2022-10-15T08:57:53.333Z,15.25
2022-10-15T09:02:53.305Z,15.32
2022-10-15T09:07:54.494Z,15.35
2022-10-15T09:12:53.176Z,15.44
2022-10-15T09:17:53.075Z,15.56
2022-10-15T09:22:53.039Z,15.59
2022-10-15T09:27:52.965Z,15.65
2022-10-15T09:32:54.585Z,15.76
2022-10-15T09:37:52.840Z,15.81
2022-10-15T09:42:52.768Z,15.93
2022-10-15T09:47:52.743Z,16.09
2022-10-15T09:52:52.649Z,16.24
2022-10-15T09:57:52.581Z,16.42
2022-10-15T10:02:52.530Z,16.52
2022-10-15T10:07:52.442Z,16.62
2022-10-15T10:12:52.393Z,16.72
2022-10-15T10:17:52.379Z,16.74
2022-10-15T10:22:52.262Z,16.88
2022-10-15T10:27:52.185Z,16.80
2022-10-15T10:32:52.126Z,16.90
2022-10-15T10:37:52.095Z,16.90
2022-10-15T10:42:52.001Z,16.98
2022-10-15T10:47:51.927Z,17.06
2022-10-15T10:52:51.877Z,17.13
2022-10-15T10:57:51.793Z,17.19
2022-10-15T11:02:51.739Z,17.20
2022-10-15T11:07:51.689Z,17.27
2022-10-15T11:12:51.630Z,17.32
2022-10-15T11:17:51.563Z,17.31
2022-10-15T11:22:51.501Z,17.39
2022-10-15T11:27:51.410Z,17.45
2022-10-15T11:33:08.456Z,17.57
2022-10-15T11:37:52.285Z,17.63
2022-10-15T11:42:51.245Z,17.72
2022-10-15T11:47:51.206Z,17.91
2022-10-15T11:52:51.118Z,17.99
2022-10-15T11:57:51.051Z,18.13
2022-10-15T12:02:50.979Z,18.39
2022-10-15T12:07:50.908Z,18.41
2022-10-15T12:12:50.850Z,18.46
2022-10-15T12:17:50.804Z,18.43
2022-10-15T12:22:50.717Z,18.43
2022-10-15T12:27:50.652Z,18.48
2022-10-15T12:32:50.602Z,18.58
2022-10-15T12:37:50.522Z,18.79
2022-10-15T12:42:50.462Z,18.93
2022-10-15T12:47:50.395Z,18.96
2022-10-15T12:52:50.350Z,19.01
2022-10-15T12:57:50.276Z,18.98
2022-10-15T13:02:50.197Z,19.04
2022-10-15T13:07:50.157Z,18.98
2022-10-15T13:12:50.089Z,18.86
2022-10-15T13:17:50.070Z,18.85
2022-10-15T13:22:55.233Z,18.82
2022-10-15T13:27:50.880Z,18.82
2022-10-15T13:32:49.835Z,18.82
2022-10-15T13:37:49.752Z,18.86
2022-10-15T13:42:49.683Z,18.93
2022-10-15T13:47:49.634Z,19.08
2022-10-15T13:52:49.566Z,19.15
2022-10-15T13:57:49.499Z,19.20
2022-10-15T14:02:49.416Z,19.23
2022-10-15T14:07:49.377Z,19.23
2022-10-15T14:12:49.333Z,19.19
2022-10-15T14:17:49.259Z,19.12
2022-10-15T14:22:49.188Z,19.17
2022-10-15T14:27:49.109Z,19.16
2022-10-15T14:32:49.063Z,19.17
2022-10-15T14:37:49.012Z,19.09
2022-10-15T14:42:48.935Z,18.91
2022-10-15T14:47:48.862Z,18.75
2022-10-15T14:52:48.796Z,18.52
2022-10-15T14:57:48.735Z,18.23
2022-10-15T15:02:48.752Z,18.01
2022-10-15T15:07:48.606Z,17.87
2022-10-15T15:12:48.530Z,17.78
2022-10-15T15:17:48.492Z,17.83
2022-10-15T15:22:48.417Z,17.90
2022-10-15T15:27:48.376Z,17.96
2022-10-15T15:32:48.280Z,17.91
2022-10-15T15:37:48.260Z,17.86
2022-10-15T15:42:48.165Z,17.75
2022-10-15T15:47:48.110Z,17.72
2022-10-15T15:52:48.093Z,17.69
2022-10-15T15:57:47.982Z,17.65
2022-10-15T16:02:47.903Z,17.63
2022-10-15T16:07:47.845Z,17.59
2022-10-15T16:12:47.794Z,17.63
2022-10-15T16:17:47.716Z,17.62
2022-10-15T16:22:47.647Z,17.59
2022-10-15T16:27:47.608Z,17.63
2022-10-15T16:32:47.527Z,17.52
2022-10-15T16:37:47.484Z,17.41
2022-10-15T16:42:47.423Z,17.24
2022-10-15T16:47:47.358Z,17.14
2022-10-15T16:52:47.281Z,17.04
2022-10-15T16:57:47.238Z,16.88
2022-10-15T17:02:47.142Z,16.72
2022-10-15T17:07:47.081Z,16.59
2022-10-15T17:12:47.035Z,16.46
2022-10-15T17:17:46.965Z,16.37
2022-10-15T17:22:46.915Z,16.24
2022-10-15T17:27:46.827Z,16.09
2022-10-15T17:32:46.786Z,16.02
2022-10-15T17:37:46.739Z,15.91
2022-10-15T17:42:46.628Z,15.93
2022-10-15T17:47:46.592Z,15.83
2022-10-15T17:52:46.509Z,15.84
2022-10-15T17:57:46.460Z,15.77
2022-10-15T18:02:46.441Z,15.77
2022-10-15T18:07:46.331Z,15.73
2022-10-15T18:12:46.244Z,15.77
2022-10-15T18:17:46.207Z,15.68
2022-10-15T18:22:46.125Z,15.72
2022-10-15T18:27:46.064Z,15.76
2022-10-15T18:32:45.987Z,15.80
2022-10-15T18:37:45.932Z,15.85
2022-10-15T18:42:47.743Z,15.91
2022-10-15T18:47:45.796Z,16.05
2022-10-15T18:52:46.076Z,16.13
2022-10-15T18:57:45.696Z,16.21
2022-10-15T19:02:45.597Z,16.25
2022-10-15T19:07:45.544Z,16.24
2022-10-15T19:12:45.501Z,16.26
2022-10-15T19:17:45.399Z,16.32
2022-10-15T19:22:45.348Z,16.33
2022-10-15T19:27:45.270Z,16.39
2022-10-15T19:32:45.219Z,16.57
2022-10-15T19:37:45.136Z,16.55
2022-10-15T19:42:45.078Z,16.44
2022-10-15T19:47:45.034Z,16.36
2022-10-15T19:52:44.967Z,16.47
2022-10-15T19:57:44.885Z,16.52
2022-10-15T20:02:44.820Z,16.43
2022-10-15T20:07:44.748Z,16.51
2022-10-15T20:17:44.638Z,16.39
2022-10-15T20:22:44.565Z,16.36
2022-10-15T20:27:44.498Z,16.37
2022-10-15T20:32:44.432Z,16.37
2022-10-15T20:37:44.379Z,16.39
2022-10-15T20:42:44.310Z,16.36
2022-10-15T20:47:44.232Z,16.39
2022-10-15T20:52:44.162Z,16.36
2022-10-15T20:57:44.104Z,16.34
2022-10-15T21:02:44.043Z,16.28
2022-10-15T21:07:43.974Z,16.36
2022-10-15T21:12:43.904Z,16.39
2022-10-15T21:17:43.837Z,16.42
2022-10-15T21:22:43.773Z,16.52
2022-10-15T21:27:43.706Z,16.52
2022-10-15T21:32:43.647Z,16.55
2022-10-15T21:37:43.586Z,16.52
2022-10-15T21:42:43.507Z,16.51
2022-10-15T21:47:43.446Z,16.54
2022-10-15T21:52:43.379Z,16.54
2022-10-15T21:57:43.327Z,16.59
2022-10-15T22:02:43.291Z,16.67
2022-10-15T22:07:43.238Z,16.74
2022-10-15T22:12:43.149Z,16.73
2022-10-15T22:17:43.053Z,16.69
2022-10-15T22:22:42.994Z,16.77
2022-10-15T22:27:42.929Z,16.74
2022-10-15T22:32:42.894Z,16.76
2022-10-15T22:37:42.801Z,16.82
2022-10-15T22:42:42.736Z,16.82
2022-10-15T22:47:42.665Z,16.76
2022-10-15T22:52:42.608Z,16.70
2022-10-15T22:57:42.548Z,16.58
2022-10-15T23:02:42.480Z,16.64
2022-10-15T23:07:42.409Z,16.54
2022-10-15T23:12:42.380Z,16.46
2022-10-15T23:17:42.290Z,16.43
2022-10-15T23:22:42.250Z,16.40
2022-10-15T23:27:42.156Z,16.37
2022-10-15T23:32:42.133Z,16.42
2022-10-15T23:37:42.048Z,16.42
2022-10-15T23:42:41.964Z,16.36
2022-10-15T23:47:41.902Z,16.37
2022-10-15T23:52:41.844Z,16.37
2022-10-15T23:57:41.766Z,16.40
